Перейти к содержанию
SimRussia.com

Borbr

Crew member
  • Публикаций

    4
  • Зарегистрирован

  • Посещение

Репутация

0 Нейтральная

Информация о Borbr

Contact Methods

  • Страна (Country)
    Russia
  1. Borbr

    xEnviro

    галочку CAVOK я конечно же проверил в первую очередь. А что в нем писать? кстати, у меня тоже была частичная замена оборудования. Сегодня попробую поставить Плейн с нуля и проверить как все будет.
  2. Borbr

    xEnviro

    X-Plane: https://yadi.sk/i/6WDfc4I23B6iCS P3D: https://yadi.sk/i/XfpfOuyh3B6iNN на полосе: https://yadi.sk/i/3PsDSBMH3B6iRT За окном: https://yadi.sk/i/tzfLKnvu3B6mtM
  3. Borbr

    xEnviro

    В гараж поставил, погода не летная Еще вопрос, не собираетесь ли прикрутить Metar Request? что бы можно было понять какую погоду ожидать в том или ином аэропорту. В xp noaa weather это Очень удобно реализовано, в AS2016 тоже есть.
  4. Borbr

    xEnviro

    Добрый день, подскажите пожалуйста, почему xEnviro не рисует туман, причем не то что бы плохо рисует, а прямо cavok какой-то рисует. Погода в СПб сейчас: ULLI 261830Z 28003MPS 1000 0900NE R28R/P2000D PRFG BR OVC002 01/01 Q1015 R28R/290050 TEMPO 0300 FG RMK QBB060 OBST OBSC четко видно что есть туман, заходим в x-plane ставим самолет на 134 стоянку и... (только не говорите, что он у меня выключен, он точно включен и версия 1.06) Для примера как это выглядит в P3D +AS2016 + ASCA Вид с полосы: Ну и наконец как это выглядит в живую:
×